Time;durP1;ratioP1;P1;durP2;ratioP2;P2;SDS_P1;SDS_P2;PMS_P1;PMS_P2;Temp;Humidity;BMP_temperature;BMP_pressure;BME280_temperature;BME280_humidity;BME280_pressure;Samples;Min_cycle;Max_cycle;Signal;HPM_P1;HPM_P2
2024/03/23 00:02:12;;;;;;;36.90;15.98;;;8.00;96.10;;;;;;5059957;28;20041;-77
2024/03/23 00:04:38;;;;;;;27.52;15.02;;;7.90;96.30;;;;;;5057564;28;20510;-76
2024/03/23 00:07:05;;;;;;;32.03;17.05;;;7.90;96.30;;;;;;5058454;28;20036;-75
2024/03/23 00:09:31;;;;;;;30.98;16.67;;;7.90;96.40;;;;;;5056230;28;20059;-78
2024/03/23 00:11:58;;;;;;;32.55;17.27;;;7.80;96.40;;;;;;5056969;28;20035;-78
2024/03/23 00:14:26;;;;;;;30.17;17.90;;;7.80;96.50;;;;;;5057911;28;20605;-77
2024/03/23 00:16:52;;;;;;;32.22;18.48;;;7.80;96.70;;;;;;5054775;28;20231;-77
2024/03/23 00:19:19;;;;;;;34.58;19.92;;;7.70;96.80;;;;;;5038981;28;20045;-78
2024/03/23 00:21:45;;;;;;;34.33;20.20;;;7.70;96.90;;;;;;5057786;28;20043;-76
2024/03/23 00:24:13;;;;;;;40.35;22.60;;;7.70;97.00;;;;;;5040162;28;20029;-75
2024/03/23 00:26:40;;;;;;;35.08;21.67;;;7.70;97.10;;;;;;5059797;28;20039;-78
2024/03/23 00:29:06;;;;;;;38.85;22.30;;;7.70;97.20;;;;;;5057449;28;20049;-75
2024/03/23 00:31:33;;;;;;;37.50;22.83;;;7.80;97.20;;;;;;5042328;28;20113;-76
2024/03/23 00:33:59;;;;;;;41.05;24.20;;;7.90;97.20;;;;;;5055888;28;20049;-77
2024/03/23 00:36:26;;;;;;;41.83;23.88;;;7.90;97.30;;;;;;5039006;28;20415;-75
2024/03/23 00:38:52;;;;;;;47.60;24.20;;;7.90;97.40;;;;;;5039447;28;20400;-75
2024/03/23 00:41:19;;;;;;;40.28;24.13;;;7.90;97.40;;;;;;5055947;28;20048;-76
2024/03/23 00:43:45;;;;;;;43.47;24.52;;;8.00;97.30;;;;;;5056350;28;20047;-74
2024/03/23 00:46:12;;;;;;;42.00;24.67;;;8.00;97.40;;;;;;5057419;28;20071;-77
2024/03/23 00:48:38;;;;;;;44.58;24.23;;;8.00;97.30;;;;;;5057916;28;20035;-76
2024/03/23 00:51:04;;;;;;;39.72;23.10;;;8.10;97.30;;;;;;5057777;28;20033;-77
2024/03/23 00:53:30;;;;;;;40.67;22.80;;;8.10;97.30;;;;;;5057898;28;20377;-77
2024/03/23 00:55:56;;;;;;;35.83;22.55;;;8.00;97.20;;;;;;5059178;28;20040;-76
2024/03/23 00:58:22;;;;;;;42.83;23.13;;;8.00;97.10;;;;;;5055346;28;20059;-77
2024/03/23 01:00:47;;;;;;;37.35;22.33;;;8.10;97.10;;;;;;5040013;28;20053;-76
2024/03/23 01:03:13;;;;;;;36.40;22.73;;;8.10;97.00;;;;;;5059467;28;20417;-75
2024/03/23 01:05:39;;;;;;;40.83;22.88;;;8.10;97.10;;;;;;5057581;28;20025;-78
2024/03/23 01:08:05;;;;;;;39.45;21.50;;;8.10;97.00;;;;;;5057440;28;20028;-75
2024/03/23 01:10:30;;;;;;;37.13;21.70;;;8.10;97.00;;;;;;5058268;28;20016;-74
2024/03/23 01:12:56;;;;;;;33.20;20.55;;;8.10;96.90;;;;;;5057907;28;20471;-77
2024/03/23 01:15:22;;;;;;;33.35;20.33;;;8.00;96.80;;;;;;5056574;28;20039;-78
2024/03/23 01:17:47;;;;;;;35.90;19.40;;;8.00;96.70;;;;;;5049490;28;20129;-77
2024/03/23 01:20:13;;;;;;;32.70;19.27;;;8.00;96.60;;;;;;5057197;28;20405;-77
2024/03/23 01:22:38;;;;;;;32.30;18.27;;;8.00;96.40;;;;;;5051564;28;20040;-76
2024/03/23 01:25:04;;;;;;;31.17;18.48;;;7.90;96.20;;;;;;5052477;28;20049;-79
2024/03/23 01:27:30;;;;;;;36.92;18.98;;;7.90;96.10;;;;;;5056980;28;20048;-78
2024/03/23 01:29:55;;;;;;;30.65;17.83;;;7.90;95.90;;;;;;5055538;28;20553;-78
2024/03/23 01:32:21;;;;;;;26.70;16.67;;;7.90;95.70;;;;;;5056016;28;20143;-78
2024/03/23 01:34:47;;;;;;;38.55;18.38;;;7.90;95.60;;;;;;5057926;28;20077;-76
2024/03/23 01:37:12;;;;;;;28.20;15.77;;;7.80;95.50;;;;;;5058964;28;20048;-76
2024/03/23 01:39:38;;;;;;;28.77;17.02;;;7.80;95.60;;;;;;5058331;28;20091;-76
2024/03/23 01:42:04;;;;;;;29.00;16.60;;;7.80;95.60;;;;;;5037114;28;20110;-75
2024/03/23 01:44:29;;;;;;;28.77;17.50;;;7.90;95.60;;;;;;5055413;28;20075;-75
2024/03/23 01:46:55;;;;;;;29.65;16.42;;;7.90;95.50;;;;;;5060216;28;20537;-75
2024/03/23 01:49:21;;;;;;;31.02;18.00;;;7.90;95.50;;;;;;5054577;28;20052;-75
2024/03/23 01:51:47;;;;;;;30.77;18.08;;;8.00;95.40;;;;;;5057623;28;20454;-76
2024/03/23 01:54:12;;;;;;;28.40;18.27;;;8.00;95.40;;;;;;5058675;28;20543;-76
2024/03/23 01:56:38;;;;;;;30.77;19.48;;;8.00;95.30;;;;;;5056638;28;20032;-76
2024/03/23 01:59:05;;;;;;;27.30;17.17;;;8.00;95.20;;;;;;5052439;28;20037;-76
2024/03/23 02:01:31;;;;;;;28.60;18.98;;;8.00;95.10;;;;;;5058492;28;20120;-76
2024/03/23 02:03:57;;;;;;;28.00;18.23;;;8.00;95.00;;;;;;5060574;28;20549;-78
2024/03/23 02:06:24;;;;;;;29.33;18.92;;;8.00;95.00;;;;;;5043056;28;20036;-76
2024/03/23 02:08:49;;;;;;;28.90;17.65;;;8.00;95.00;;;;;;5052509;28;20041;-77
2024/03/23 02:11:15;;;;;;;27.20;18.55;;;8.00;95.00;;;;;;5061058;28;20043;-77
2024/03/23 02:13:41;;;;;;;32.13;18.23;;;8.00;95.00;;;;;;5042220;28;20036;-78
2024/03/23 02:16:07;;;;;;;30.65;17.58;;;8.00;94.90;;;;;;5049396;28;20037;-76
2024/03/23 02:18:33;;;;;;;27.08;17.50;;;8.00;94.90;;;;;;5042907;28;20060;-75
2024/03/23 02:20:59;;;;;;;26.80;18.27;;;8.00;94.80;;;;;;5059346;28;20456;-77
2024/03/23 02:23:24;;;;;;;32.55;17.95;;;7.90;94.80;;;;;;5060110;28;20107;-77
2024/03/23 02:25:51;;;;;;;27.85;18.27;;;8.00;94.70;;;;;;5057054;28;20238;-75
2024/03/23 02:28:17;;;;;;;27.25;16.70;;;7.90;94.60;;;;;;5059979;28;20037;-76
2024/03/23 02:30:42;;;;;;;26.05;16.98;;;8.00;94.60;;;;;;5040768;28;20030;-78
2024/03/23 02:33:08;;;;;;;28.58;17.40;;;8.00;94.50;;;;;;5060339;28;20259;-75
2024/03/23 02:35:34;;;;;;;26.65;17.23;;;8.00;94.50;;;;;;5058871;28;20504;-78
2024/03/23 02:37:59;;;;;;;26.85;17.27;;;8.00;94.40;;;;;;5059770;28;20548;-78
2024/03/23 02:40:26;;;;;;;25.40;16.63;;;7.90;94.30;;;;;;5056764;28;20040;-74
2024/03/23 02:42:52;;;;;;;22.95;16.35;;;7.90;94.20;;;;;;5058534;28;21474;-77
2024/03/23 02:45:18;;;;;;;31.70;16.23;;;7.90;94.10;;;;;;5057217;28;20032;-77
2024/03/23 02:47:43;;;;;;;22.67;15.13;;;7.80;94.00;;;;;;5058644;28;20055;-75
2024/03/23 02:50:09;;;;;;;23.05;14.63;;;7.80;93.90;;;;;;5053635;28;20118;-79
2024/03/23 02:52:36;;;;;;;27.15;14.98;;;7.80;94.00;;;;;;5059587;28;20293;-77
2024/03/23 02:55:02;;;;;;;23.92;14.18;;;7.70;93.90;;;;;;5059315;28;20033;-76
2024/03/23 02:57:28;;;;;;;24.33;13.15;;;7.60;93.90;;;;;;5058739;28;20045;-76
2024/03/23 02:59:54;;;;;;;21.45;12.25;;;7.60;93.80;;;;;;5058406;28;20389;-77
2024/03/23 03:02:20;;;;;;;23.95;13.10;;;7.50;93.80;;;;;;5041508;28;20059;-78
2024/03/23 03:04:46;;;;;;;18.88;12.10;;;7.40;93.80;;;;;;5056652;28;20033;-75
2024/03/23 03:07:12;;;;;;;20.20;11.85;;;7.30;93.80;;;;;;5055388;28;20084;-75
2024/03/23 03:09:39;;;;;;;22.70;12.13;;;7.30;93.80;;;;;;5053206;28;20041;-79
2024/03/23 03:12:08;;;;;;;23.38;13.27;;;7.30;93.70;;;;;;5059332;28;20170;-77
2024/03/23 03:14:34;;;;;;;18.55;11.30;;;7.30;93.70;;;;;;5053301;28;20040;-75
2024/03/23 03:17:00;;;;;;;23.88;12.02;;;7.30;93.60;;;;;;5054050;28;20427;-76
2024/03/23 03:19:26;;;;;;;28.35;12.63;;;7.30;93.50;;;;;;5058336;28;20048;-75
2024/03/23 03:21:51;;;;;;;21.85;11.27;;;7.40;93.40;;;;;;5058723;28;20527;-74
2024/03/23 03:24:17;;;;;;;23.83;12.38;;;7.40;93.30;;;;;;5055518;28;20033;-76
2024/03/23 03:26:43;;;;;;;24.60;11.40;;;7.40;93.10;;;;;;5057833;28;20416;-74
2024/03/23 03:29:09;;;;;;;19.10;11.32;;;7.40;93.10;;;;;;5060134;28;20036;-78
2024/03/23 03:31:34;;;;;;;20.00;10.82;;;7.50;92.90;;;;;;5059865;28;20037;-76
2024/03/23 03:34:00;;;;;;;22.67;10.32;;;7.40;92.90;;;;;;5059884;28;20059;-75
2024/03/23 03:36:26;;;;;;;23.08;9.80;;;7.50;92.70;;;;;;5051640;28;20824;-77
2024/03/23 03:38:51;;;;;;;18.58;9.32;;;7.50;92.50;;;;;;5059553;28;20143;-75
2024/03/23 03:41:18;;;;;;;18.20;8.50;;;7.40;92.10;;;;;;5057635;28;20416;-77
2024/03/23 03:43:44;;;;;;;16.05;7.07;;;7.40;91.80;;;;;;5059377;28;20029;-76
2024/03/23 03:46:10;;;;;;;19.80;6.32;;;7.40;91.50;;;;;;5058921;28;20616;-76
2024/03/23 03:48:37;;;;;;;17.10;5.70;;;7.30;91.30;;;;;;5057661;28;20455;-77
2024/03/23 03:51:03;;;;;;;18.05;6.22;;;7.30;91.20;;;;;;5059286;28;20044;-77
2024/03/23 03:53:29;;;;;;;12.38;4.97;;;7.30;91.00;;;;;;5057066;28;20040;-75
2024/03/23 03:55:54;;;;;;;16.38;5.15;;;7.20;90.80;;;;;;5058386;28;20046;-78
2024/03/23 03:58:20;;;;;;;12.90;4.28;;;7.30;90.80;;;;;;5058176;28;20469;-76
2024/03/23 04:00:46;;;;;;;16.80;4.50;;;7.30;90.60;;;;;;5052176;28;20090;-76
2024/03/23 04:03:11;;;;;;;20.92;4.93;;;7.30;90.30;;;;;;5058931;28;20379;-78
2024/03/23 04:05:37;;;;;;;14.07;4.55;;;7.30;90.20;;;;;;5046361;28;20025;-76
2024/03/23 04:08:04;;;;;;;14.32;4.15;;;7.30;90.30;;;;;;5040979;28;20453;-76
2024/03/23 04:10:30;;;;;;;13.38;3.60;;;7.30;90.20;;;;;;5058177;28;20016;-75
2024/03/23 04:12:56;;;;;;;17.88;4.18;;;7.20;90.20;;;;;;5053316;28;20034;-76
2024/03/23 04:15:21;;;;;;;18.08;4.28;;;7.20;90.20;;;;;;5058386;28;20039;-77
2024/03/23 04:17:47;;;;;;;18.33;4.63;;;7.20;90.20;;;;;;5040805;28;20504;-77
2024/03/23 04:20:16;;;;;;;14.45;3.53;;;7.20;90.30;;;;;;5057628;28;20484;-75
2024/03/23 04:22:42;;;;;;;14.60;4.28;;;7.30;89.90;;;;;;5040680;28;20045;-77
2024/03/23 04:25:10;;;;;;;16.42;4.53;;;7.30;89.90;;;;;;5055686;28;20089;-75
2024/03/23 04:27:37;;;;;;;15.48;4.88;;;7.20;90.00;;;;;;5057567;28;20033;-75
2024/03/23 04:30:09;;;;;;;15.50;4.93;;;7.20;90.00;;;;;;5056866;28;20042;-77
2024/03/23 04:32:35;;;;;;;17.20;5.35;;;7.20;90.00;;;;;;5054251;28;20029;-77
2024/03/23 04:35:00;;;;;;;19.30;6.38;;;7.10;90.30;;;;;;5057667;28;20039;-76
2024/03/23 04:37:26;;;;;;;19.95;5.72;;;7.10;90.30;;;;;;5038426;28;20548;-78
2024/03/23 04:39:52;;;;;;;16.60;4.38;;;7.00;90.40;;;;;;5059326;28;20036;-76
2024/03/23 04:42:18;;;;;;;18.83;5.40;;;6.90;90.50;;;;;;5056931;28;20427;-76
2024/03/23 04:44:44;;;;;;;15.13;4.45;;;6.90;90.60;;;;;;5055597;28;20083;-76
2024/03/23 04:47:11;;;;;;;17.27;5.13;;;6.90;90.70;;;;;;5054589;28;20200;-76
2024/03/23 04:49:36;;;;;;;22.15;5.32;;;6.90;90.90;;;;;;5058012;28;20049;-76
2024/03/23 04:52:04;;;;;;;22.05;5.10;;;6.90;90.90;;;;;;5058358;28;20040;-76
2024/03/23 04:54:29;;;;;;;16.10;6.32;;;6.80;91.10;;;;;;5057790;28;20040;-74
2024/03/23 04:56:56;;;;;;;22.55;7.80;;;6.90;91.10;;;;;;5040253;28;20048;-76
2024/03/23 04:59:21;;;;;;;18.77;8.70;;;6.80;91.20;;;;;;5039742;28;20127;-74
2024/03/23 05:01:47;;;;;;;23.30;10.40;;;6.90;91.30;;;;;;5055074;28;20133;-77
2024/03/23 05:04:13;;;;;;;21.58;9.18;;;6.90;91.40;;;;;;5061422;28;20048;-76
2024/03/23 05:06:38;;;;;;;24.17;9.85;;;6.90;91.70;;;;;;5061537;28;20354;-75
2024/03/23 05:09:07;;;;;;;24.02;9.93;;;6.90;91.80;;;;;;5062249;28;20029;-75
2024/03/23 05:11:36;;;;;;;17.45;8.23;;;7.00;91.80;;;;;;5064025;28;20036;-77
2024/03/23 05:14:02;;;;;;;26.33;7.95;;;7.00;91.80;;;;;;5061384;28;20272;-75
2024/03/23 05:16:28;;;;;;;25.02;9.70;;;6.90;91.90;;;;;;5044242;28;20066;-75
2024/03/23 05:18:54;;;;;;;20.17;9.25;;;6.90;91.90;;;;;;5044082;28;20178;-76
2024/03/23 05:21:19;;;;;;;17.58;7.68;;;6.90;91.90;;;;;;5064006;28;20155;-76
2024/03/23 05:23:45;;;;;;;21.23;7.55;;;6.90;91.90;;;;;;5061456;28;20479;-75
2024/03/23 05:26:11;;;;;;;19.10;6.53;;;6.80;91.90;;;;;;5067712;28;20060;-76
2024/03/23 05:28:36;;;;;;;16.80;5.13;;;6.80;91.80;;;;;;5064874;28;20552;-76
2024/03/23 05:31:02;;;;;;;16.45;5.38;;;6.80;91.80;;;;;;5048969;28;20040;-75
2024/03/23 05:33:28;;;;;;;16.08;5.43;;;6.80;91.50;;;;;;5065534;28;20028;-77
2024/03/23 05:36:01;;;;;;;17.98;5.82;;;6.80;91.60;;;;;;5067340;28;20032;-76
2024/03/23 05:38:28;;;;;;;22.60;6.07;;;6.80;91.40;;;;;;5065533;28;20066;-77
2024/03/23 05:40:57;;;;;;;21.40;6.38;;;6.70;91.30;;;;;;5065470;28;20034;-78
2024/03/23 05:43:23;;;;;;;19.67;5.35;;;6.80;91.30;;;;;;5066152;28;20040;-76
2024/03/23 05:45:55;;;;;;;22.73;5.68;;;6.70;91.10;;;;;;5065389;28;20090;-75
2024/03/23 05:48:22;;;;;;;18.13;4.78;;;6.70;91.30;;;;;;5060822;28;20024;-76
2024/03/23 05:50:48;;;;;;;16.63;5.47;;;6.70;91.30;;;;;;5067473;28;20048;-76
2024/03/23 05:53:15;;;;;;;21.55;6.53;;;6.70;91.30;;;;;;5066715;28;20021;-76
2024/03/23 05:55:41;;;;;;;22.10;6.40;;;6.70;91.30;;;;;;5047029;28;20380;-76
2024/03/23 05:58:07;;;;;;;18.17;5.97;;;6.70;91.30;;;;;;5068612;28;20317;-77
2024/03/23 06:00:32;;;;;;;16.98;5.18;;;6.70;91.20;;;;;;5062261;28;20028;-77
2024/03/23 06:02:58;;;;;;;17.50;5.80;;;6.60;90.80;;;;;;5073081;28;20024;-77
2024/03/23 06:05:23;;;;;;;16.63;5.85;;;6.70;90.80;;;;;;5067527;28;20068;-76
2024/03/23 06:07:49;;;;;;;19.55;6.13;;;6.60;90.70;;;;;;5068113;28;20060;-77
2024/03/23 06:10:15;;;;;;;19.27;6.10;;;6.60;90.60;;;;;;5066803;28;20036;-77
2024/03/23 06:12:41;;;;;;;20.80;5.57;;;6.50;90.60;;;;;;5061803;28;20109;-77
2024/03/23 06:15:10;;;;;;;19.38;6.13;;;6.40;90.70;;;;;;5062788;28;20032;-77
2024/03/23 06:17:39;;;;;;;15.38;5.32;;;6.50;91.00;;;;;;5063719;28;20598;-78
2024/03/23 06:20:08;;;;;;;21.15;5.85;;;6.40;90.90;;;;;;5066554;28;20117;-75
2024/03/23 06:22:34;;;;;;;17.63;5.35;;;6.40;90.90;;;;;;5067048;28;20032;-78
2024/03/23 06:24:59;;;;;;;17.98;5.78;;;6.40;91.00;;;;;;5047173;28;20042;-76
2024/03/23 06:27:25;;;;;;;17.83;6.15;;;6.30;90.90;;;;;;5063762;28;20044;-75
2024/03/23 06:29:51;;;;;;;17.98;6.05;;;6.30;90.90;;;;;;5067085;28;20457;-77
2024/03/23 06:32:17;;;;;;;16.35;4.85;;;6.30;90.80;;;;;;5065491;28;20025;-76
2024/03/23 06:34:42;;;;;;;17.17;5.22;;;6.30;90.90;;;;;;5062546;28;20040;-86
2024/03/23 06:37:09;;;;;;;17.80;5.25;;;6.40;91.00;;;;;;5065800;28;20028;-83
2024/03/23 06:39:36;;;;;;;18.17;5.53;;;6.40;90.90;;;;;;5051679;28;20506;-83
2024/03/23 06:42:02;;;;;;;19.88;5.28;;;6.60;90.80;;;;;;5069145;28;20039;-83
2024/03/23 06:44:28;;;;;;;15.73;4.38;;;7.10;90.30;;;;;;5065646;28;20237;-85
2024/03/23 06:46:53;;;;;;;15.13;4.43;;;7.90;88.70;;;;;;5064068;28;20033;-86
2024/03/23 06:49:19;;;;;;;13.38;4.22;;;8.60;86.60;;;;;;5070928;28;20082;-81
2024/03/23 06:51:45;;;;;;;15.82;4.07;;;9.00;84.40;;;;;;5068119;28;20693;-83
2024/03/23 06:54:11;;;;;;;15.07;4.60;;;8.90;83.70;;;;;;5067946;28;20028;-85
2024/03/23 06:56:36;;;;;;;15.77;4.47;;;8.80;84.00;;;;;;5050631;28;20079;-80
2024/03/23 06:59:02;;;;;;;15.80;4.97;;;8.40;84.20;;;;;;5060043;28;20036;-84
2024/03/23 07:01:28;;;;;;;16.92;4.97;;;8.10;85.20;;;;;;5067539;28;20036;-82
2024/03/23 07:03:54;;;;;;;13.45;4.95;;;7.70;86.30;;;;;;5067414;28;20088;-86
2024/03/23 07:06:20;;;;;;;17.95;5.43;;;7.40;87.20;;;;;;5044165;28;20029;-85
2024/03/23 07:08:46;;;;;;;15.32;4.60;;;7.30;87.60;;;;;;5058618;28;20032;-83
2024/03/23 07:11:11;;;;;;;17.23;5.20;;;7.20;88.00;;;;;;5056831;28;20143;-85
2024/03/23 07:13:37;;;;;;;17.30;4.78;;;7.20;88.30;;;;;;5061863;28;20456;-84
2024/03/23 07:16:03;;;;;;;18.02;5.70;;;7.20;88.60;;;;;;5059976;28;20035;-84
2024/03/23 07:18:28;;;;;;;14.80;5.00;;;7.20;88.60;;;;;;5056431;28;20166;-83
2024/03/23 07:20:57;;;;;;;14.23;4.88;;;7.10;88.50;;;;;;5061878;28;20347;-83
2024/03/23 07:23:24;;;;;;;17.52;5.70;;;7.20;88.60;;;;;;5058552;28;20028;-78
2024/03/23 07:26:00;;;;;;;15.18;4.20;;;7.30;89.00;;;;;;5045583;28;20445;-75
2024/03/23 07:28:25;;;;;;;14.25;4.03;;;7.30;88.60;;;;;;5057088;28;20108;-76
2024/03/23 07:31:08;;;;;;;12.65;3.75;;;7.40;88.30;;;;;;5063340;28;20115;-78
2024/03/23 07:33:35;;;;;;;18.30;4.82;;;7.50;88.00;;;;;;5062626;28;20025;-76
2024/03/23 07:36:01;;;;;;;18.05;5.10;;;7.50;87.70;;;;;;5058953;28;20078;-76
2024/03/23 07:38:28;;;;;;;13.43;4.47;;;7.50;87.80;;;;;;5044276;28;20033;-79
2024/03/23 07:41:17;;;;;;;19.80;5.03;;;7.60;88.20;;;;;;5059527;28;20028;-77
2024/03/23 07:43:42;;;;;;;14.95;5.13;;;7.70;87.90;;;;;;5043831;28;20040;-74
2024/03/23 07:46:08;;;;;;;16.25;5.75;;;7.80;88.10;;;;;;5056048;28;20044;-77
2024/03/23 07:48:34;;;;;;;13.00;4.93;;;7.80;87.50;;;;;;5061162;28;20013;-77
2024/03/23 07:51:10;;;;;;;12.13;4.43;;;7.90;87.40;;;;;;5062971;28;20478;-77
2024/03/23 07:53:37;;;;;;;13.57;4.80;;;7.70;86.90;;;;;;5040396;28;20040;-77
2024/03/23 07:56:08;;;;;;;16.65;4.35;;;7.90;86.70;;;;;;5059570;28;20056;-77
2024/03/23 07:58:34;;;;;;;12.93;4.15;;;8.10;86.00;;;;;;5046087;28;20037;-77
2024/03/23 08:01:10;;;;;;;13.35;4.07;;;8.20;85.40;;;;;;5062291;28;20036;-77
2024/03/23 08:03:37;;;;;;;16.50;5.25;;;8.50;85.20;;;;;;5054154;28;20040;-77
2024/03/23 08:06:14;;;;;;;11.13;3.22;;;8.40;84.80;;;;;;5038979;28;20043;-77
2024/03/23 08:08:41;;;;;;;15.35;4.50;;;8.60;84.40;;;;;;5062747;28;20048;-78
2024/03/23 08:11:07;;;;;;;13.02;3.35;;;8.40;83.90;;;;;;5058080;28;20032;-76
2024/03/23 08:13:34;;;;;;;13.43;3.35;;;8.60;83.40;;;;;;5057446;28;20052;-77
2024/03/23 08:16:01;;;;;;;13.73;3.90;;;8.70;82.10;;;;;;5061145;28;20035;-75
2024/03/23 08:18:27;;;;;;;14.35;3.67;;;8.70;82.40;;;;;;5060136;28;20041;-78
2024/03/23 08:21:00;;;;;;;16.85;3.85;;;8.60;82.90;;;;;;5064762;28;20035;-76
2024/03/23 08:23:30;;;;;;;14.45;4.82;;;8.60;82.00;;;;;;5044949;28;20743;-79
2024/03/23 08:26:09;;;;;;;12.43;3.75;;;8.60;83.10;;;;;;5062392;28;20044;-79
2024/03/23 08:28:35;;;;;;;10.85;4.15;;;8.80;83.40;;;;;;5062491;28;20498;-78
2024/03/23 08:31:03;;;;;;;11.00;3.20;;;8.70;82.10;;;;;;5062166;28;20036;-77
2024/03/23 08:33:30;;;;;;;14.13;3.45;;;8.70;80.50;;;;;;5060523;28;20078;-77
2024/03/23 08:35:57;;;;;;;16.73;3.40;;;8.60;81.30;;;;;;5064133;28;20036;-78
2024/03/23 08:38:23;;;;;;;14.88;3.30;;;8.60;81.20;;;;;;5059993;28;20397;-76
2024/03/23 08:41:06;;;;;;;16.00;4.10;;;8.60;80.50;;;;;;5061260;28;20032;-77
2024/03/23 08:43:35;;;;;;;10.30;3.67;;;8.90;81.00;;;;;;5063613;28;20028;-75
2024/03/23 08:46:11;;;;;;;13.00;4.07;;;9.00;81.00;;;;;;5042153;28;21038;-79
2024/03/23 08:48:43;;;;;;;13.43;4.47;;;9.00;80.80;;;;;;5059236;28;20036;-79
2024/03/23 08:51:10;;;;;;;14.43;4.28;;;9.30;80.10;;;;;;5062346;28;20162;-77
2024/03/23 08:53:36;;;;;;;14.15;4.85;;;9.50;80.10;;;;;;5052263;28;20048;-78
2024/03/23 08:56:02;;;;;;;13.10;5.07;;;9.50;79.20;;;;;;5058550;28;20028;-78
2024/03/23 08:58:29;;;;;;;16.65;4.68;;;9.60;78.70;;;;;;5057726;28;20074;-77
2024/03/23 09:00:56;;;;;;;17.55;5.43;;;9.50;78.20;;;;;;5060962;28;20320;-74
2024/03/23 09:03:23;;;;;;;13.32;5.13;;;9.20;79.10;;;;;;5041487;28;20020;-78
2024/03/23 09:05:49;;;;;;;16.92;5.07;;;9.30;79.60;;;;;;5060689;28;20069;-76
2024/03/23 09:08:14;;;;;;;14.43;5.68;;;9.30;78.90;;;;;;5058904;28;20156;-76
2024/03/23 09:10:42;;;;;;;14.43;5.90;;;9.50;80.50;;;;;;5046208;28;20089;-78
2024/03/23 09:13:08;;;;;;;15.45;4.85;;;9.60;78.80;;;;;;5058586;28;20024;-77
2024/03/23 09:15:45;;;;;;;14.88;5.05;;;9.40;79.10;;;;;;5056101;28;20055;-75
2024/03/23 09:18:11;;;;;;;12.50;5.38;;;9.40;79.70;;;;;;5038568;28;20070;-78
2024/03/23 09:20:36;;;;;;;10.32;4.82;;;9.50;79.50;;;;;;5038908;28;20625;-75
2024/03/23 09:23:02;;;;;;;11.85;5.32;;;9.60;77.70;;;;;;5056428;28;20028;-76
2024/03/23 09:25:27;;;;;;;17.15;5.72;;;9.50;77.20;;;;;;5052441;28;20051;-76
2024/03/23 09:27:53;;;;;;;15.40;5.40;;;9.40;76.90;;;;;;5058759;28;20025;-79
2024/03/23 09:30:19;;;;;;;12.65;5.20;;;9.40;78.90;;;;;;5054567;28;20613;-75
2024/03/23 09:32:45;;;;;;;14.43;5.65;;;9.80;77.30;;;;;;5039376;28;20385;-75
2024/03/23 09:35:11;;;;;;;14.07;5.38;;;9.90;76.20;;;;;;5057602;28;20059;-76
2024/03/23 09:37:41;;;;;;;15.20;6.70;;;9.80;75.40;;;;;;5056396;28;20131;-77
2024/03/23 09:40:11;;;;;;;15.40;6.03;;;9.70;76.80;;;;;;5040592;28;20118;-76
2024/03/23 09:42:37;;;;;;;13.70;5.82;;;9.60;77.80;;;;;;5057207;28;20844;-76
2024/03/23 09:45:06;;;;;;;13.88;5.90;;;9.60;76.30;;;;;;5054068;28;20131;-75
2024/03/23 09:47:33;;;;;;;17.83;5.38;;;9.80;76.70;;;;;;5057836;28;20055;-78
2024/03/23 09:49:59;;;;;;;11.93;5.32;;;10.40;74.80;;;;;;5037824;28;20048;-76
2024/03/23 09:52:25;;;;;;;12.00;5.03;;;10.40;74.30;;;;;;5055641;28;20070;-75
2024/03/23 09:54:51;;;;;;;15.95;4.85;;;10.60;73.70;;;;;;5045512;28;20032;-77
2024/03/23 09:57:19;;;;;;;12.93;4.32;;;10.80;72.40;;;;;;5041775;28;20363;-74
2024/03/23 09:59:45;;;;;;;14.45;3.72;;;10.90;71.50;;;;;;5057878;28;20044;-75
2024/03/23 10:02:12;;;;;;;9.05;3.80;;;11.00;72.70;;;;;;5055018;28;20034;-74
2024/03/23 10:04:39;;;;;;;10.18;3.70;;;11.40;72.70;;;;;;5057671;28;20524;-77
2024/03/23 10:07:13;;;;;;;11.23;3.60;;;11.40;70.00;;;;;;5060118;28;20035;-77
2024/03/23 10:09:39;;;;;;;12.10;3.78;;;11.60;68.90;;;;;;5040700;28;20043;-77
2024/03/23 10:12:13;;;;;;;15.15;3.95;;;11.70;68.80;;;;;;5061719;28;20523;-78
2024/03/23 10:14:42;;;;;;;10.50;3.63;;;11.40;68.70;;;;;;5036974;28;20497;-76
2024/03/23 10:17:20;;;;;;;9.32;2.95;;;11.50;69.60;;;;;;5058105;28;20528;-78
2024/03/23 10:19:49;;;;;;;9.48;3.33;;;11.80;66.80;;;;;;5055073;28;20499;-76
2024/03/23 10:22:19;;;;;;;11.52;3.50;;;12.10;67.00;;;;;;5054238;28;20514;-80
2024/03/23 10:24:45;;;;;;;12.88;2.92;;;12.10;66.90;;;;;;5060006;28;20028;-78
2024/03/23 10:27:17;;;;;;;8.07;2.55;;;12.30;65.70;;;;;;5060591;28;20436;-76
2024/03/23 10:29:44;;;;;;;14.10;3.22;;;11.90;65.80;;;;;;5051672;28;20032;-76
2024/03/23 10:32:11;;;;;;;10.68;2.97;;;11.50;66.20;;;;;;5044919;28;20384;-78
2024/03/23 10:34:38;;;;;;;11.40;3.33;;;11.10;66.40;;;;;;5056863;28;20036;-74
2024/03/23 10:37:04;;;;;;;13.32;3.42;;;11.00;66.70;;;;;;5056285;28;20047;-77
2024/03/23 10:39:36;;;;;;;10.05;2.40;;;10.80;68.40;;;;;;5058463;28;20167;-77
2024/03/23 10:42:04;;;;;;;11.57;3.08;;;10.60;67.90;;;;;;5052390;28;20876;-79
2024/03/23 10:44:30;;;;;;;12.65;2.83;;;10.30;70.50;;;;;;5050563;28;20041;-78
2024/03/23 10:47:03;;;;;;;11.27;3.40;;;10.50;69.00;;;;;;5056885;28;20467;-78
2024/03/23 10:49:30;;;;;;;9.98;3.50;;;10.60;70.70;;;;;;5053437;28;20263;-77
2024/03/23 10:51:59;;;;;;;10.55;2.63;;;10.70;70.60;;;;;;5055516;28;20037;-76
2024/03/23 10:54:26;;;;;;;9.73;2.47;;;10.80;69.70;;;;;;5036240;28;20039;-79
2024/03/23 10:57:17;;;;;;;9.43;2.80;;;10.60;69.80;;;;;;5060895;28;20035;-77
2024/03/23 10:59:45;;;;;;;13.05;3.10;;;10.70;67.70;;;;;;5045727;28;20174;-76
2024/03/23 11:02:19;;;;;;;10.50;2.28;;;10.60;68.70;;;;;;5062534;28;20492;-79
2024/03/23 11:04:48;;;;;;;8.80;2.50;;;10.70;69.00;;;;;;5058525;28;20166;-78
2024/03/23 11:07:32;;;;;;;8.85;2.97;;;10.60;68.60;;;;;;5062180;28;20036;-77
2024/03/23 11:09:58;;;;;;;11.73;2.55;;;10.40;69.00;;;;;;5047469;28;20036;-80
2024/03/23 11:12:23;;;;;;;10.32;3.15;;;10.20;69.70;;;;;;5063604;28;20430;-77
2024/03/23 11:15:14;;;;;;;16.58;3.70;;;10.00;70.80;;;;;;5061413;28;20048;-78
2024/03/23 11:17:39;;;;;;;10.43;3.33;;;9.80;70.60;;;;;;5060158;28;20052;-78
2024/03/23 11:20:06;;;;;;;8.32;3.72;;;10.00;71.10;;;;;;5066419;28;20044;-79
2024/03/23 11:22:41;;;;;;;13.38;4.22;;;10.10;70.60;;;;;;5050211;28;20064;-78
2024/03/23 11:25:33;;;;;;;13.30;3.92;;;9.90;71.30;;;;;;5065703;28;20060;-78
2024/03/23 11:28:11;;;;;;;13.88;4.55;;;9.70;71.40;;;;;;5062432;28;20788;-78
2024/03/23 11:30:40;;;;;;;16.08;4.30;;;10.20;71.30;;;;;;5065104;28;20029;-78
2024/03/23 11:33:06;;;;;;;10.85;3.40;;;11.00;71.10;;;;;;5050004;28;20020;-79
2024/03/23 11:35:32;;;;;;;11.48;3.55;;;11.40;67.40;;;;;;5065075;28;20059;-75
2024/03/23 11:38:18;;;;;;;12.23;4.78;;;11.50;66.80;;;;;;5063392;28;20020;-78
2024/03/23 11:40:46;;;;;;;14.27;3.70;;;11.50;63.80;;;;;;5046701;28;20057;-77
2024/03/23 11:43:21;;;;;;;10.07;2.50;;;11.90;61.90;;;;;;5067545;28;20024;-82
2024/03/23 11:45:55;;;;;;;7.78;2.08;;;12.10;63.50;;;;;;5063114;28;20044;-82
2024/03/23 11:48:22;;;;;;;12.48;2.47;;;12.40;63.30;;;;;;5045006;28;20070;-75
2024/03/23 11:50:50;;;;;;;8.55;2.63;;;12.70;64.00;;;;;;5063525;28;20141;-75
2024/03/23 11:53:16;;;;;;;10.70;2.42;;;13.00;62.90;;;;;;5065796;28;20029;-83
2024/03/23 11:55:58;;;;;;;9.88;2.38;;;12.80;60.00;;;;;;5064670;28;20044;-79
2024/03/23 11:58:25;;;;;;;8.80;2.22;;;12.40;62.10;;;;;;5062803;28;20276;-80
2024/03/23 12:00:52;;;;;;;9.38;2.30;;;12.50;62.00;;;;;;5067629;28;20040;-77
2024/03/23 12:03:22;;;;;;;8.07;2.15;;;12.40;60.70;;;;;;5069430;28;20031;-78
2024/03/23 12:05:50;;;;;;;8.90;2.58;;;12.30;61.10;;;;;;5066547;28;20457;-78
2024/03/23 12:08:29;;;;;;;10.50;2.17;;;12.00;60.70;;;;;;5063672;28;20035;-81
2024/03/23 12:11:26;;;;;;;9.48;2.08;;;11.60;62.20;;;;;;5063498;28;20043;-78
2024/03/23 12:13:52;;;;;;;8.20;1.92;;;11.40;62.80;;;;;;5048611;28;20431;-80
2024/03/23 12:16:22;;;;;;;7.90;2.28;;;11.10;62.50;;;;;;5066224;28;20497;-80
2024/03/23 12:18:49;;;;;;;7.10;2.10;;;10.80;63.70;;;;;;5065287;28;20056;-79
2024/03/23 12:21:16;;;;;;;9.52;2.67;;;11.30;65.40;;;;;;5062951;28;20032;-80
2024/03/23 12:23:44;;;;;;;6.63;2.03;;;11.60;65.90;;;;;;5047731;28;20083;-79
2024/03/23 12:26:11;;;;;;;12.48;2.72;;;11.60;65.90;;;;;;5066234;28;20170;-81
2024/03/23 12:28:37;;;;;;;9.25;2.50;;;11.70;65.10;;;;;;5066245;28;20040;-77
2024/03/23 12:31:04;;;;;;;7.90;2.08;;;11.40;64.50;;;;;;5065837;28;20060;-77
2024/03/23 12:33:29;;;;;;;6.35;1.73;;;11.50;64.10;;;;;;5065599;28;20316;-78
2024/03/23 12:35:55;;;;;;;6.47;1.90;;;11.90;61.80;;;;;;5066414;28;20423;-79
2024/03/23 12:38:21;;;;;;;9.82;2.20;;;12.00;60.80;;;;;;5062999;28;20029;-82
2024/03/23 12:40:48;;;;;;;7.88;2.08;;;12.20;60.70;;;;;;5064470;28;20062;-76
2024/03/23 12:43:13;;;;;;;8.25;2.25;;;12.00;61.40;;;;;;5065755;28;21223;-73
2024/03/23 12:45:39;;;;;;;8.65;2.67;;;11.70;62.60;;;;;;5049674;28;20523;-77